Time;durP1;ratioP1;P1;durP2;ratioP2;P2;SDS_P1;SDS_P2;PMS_P1;PMS_P2;Temp;Humidity;BMP_temperature;BMP_pressure;BME280_temperature;BME280_humidity;BME280_pressure;Samples;Min_cycle;Max_cycle;Signal;HPM_P1;HPM_P2
2022/01/02 00:01:00;;;;;;;11.77;7.72;;;11.90;99.90;;;;;;5030731;28;20033;-80
2022/01/02 00:03:53;;;;;;;8.75;4.78;;;11.90;99.90;;;;;;5006684;28;21266;-80
2022/01/02 00:06:44;;;;;;;6.70;3.83;;;11.90;99.90;;;;;;5021830;28;20044;-80
2022/01/02 00:09:32;;;;;;;5.70;3.60;;;11.90;99.90;;;;;;5045330;28;20053;-80
2022/01/02 00:12:18;;;;;;;7.50;3.47;;;11.90;99.90;;;;;;5020806;28;20052;-80
2022/01/02 00:15:08;;;;;;;8.68;4.55;;;11.90;99.90;;;;;;5018757;28;20132;-80
2022/01/02 00:18:09;;;;;;;6.18;3.55;;;11.90;99.90;;;;;;5032955;28;20032;-80
2022/01/02 00:20:56;;;;;;;7.22;3.55;;;11.90;99.90;;;;;;5016743;28;20049;-78
2022/01/02 00:24:19;;;;;;;5.78;2.72;;;11.90;99.90;;;;;;5015780;28;20032;-78
2022/01/02 00:26:56;;;;;;;5.45;2.92;;;11.80;99.90;;;;;;5043819;28;20060;-78
2022/01/02 00:29:43;;;;;;;4.85;2.28;;;11.80;99.90;;;;;;5007245;28;20048;-79
2022/01/02 00:32:28;;;;;;;5.28;2.83;;;11.80;99.90;;;;;;5007971;28;20049;-80
2022/01/02 00:35:14;;;;;;;4.03;2.30;;;11.80;99.90;;;;;;5022657;28;20512;-80
2022/01/02 00:37:59;;;;;;;4.28;2.22;;;11.80;99.90;;;;;;5008784;28;20040;-81
2022/01/02 00:40:46;;;;;;;3.97;1.35;;;11.80;99.90;;;;;;5021357;28;20061;-81
2022/01/02 00:43:47;;;;;;;6.20;2.55;;;11.80;99.90;;;;;;5020941;28;20066;-80
2022/01/02 00:46:40;;;;;;;4.97;2.15;;;11.80;99.90;;;;;;5007757;28;20040;-79
2022/01/02 00:49:26;;;;;;;5.27;3.07;;;11.80;99.90;;;;;;5021416;28;20053;-80
2022/01/02 00:52:16;;;;;;;6.95;2.00;;;11.80;99.90;;;;;;5004954;28;20040;-79
2022/01/02 00:55:03;;;;;;;7.00;2.33;;;11.90;99.90;;;;;;5018991;28;20485;-77
2022/01/02 00:58:02;;;;;;;5.32;2.60;;;11.90;99.90;;;;;;5018042;28;20045;-80
2022/01/02 01:00:53;;;;;;;6.80;2.50;;;11.80;99.90;;;;;;5015018;28;20491;-78
2022/01/02 01:03:40;;;;;;;4.05;2.17;;;11.90;99.90;;;;;;5004770;28;20037;-79
2022/01/02 01:06:30;;;;;;;4.68;2.42;;;11.80;99.90;;;;;;5018678;28;20064;-81
2022/01/02 01:09:17;;;;;;;5.78;2.55;;;11.80;99.90;;;;;;5021304;28;20056;-80
2022/01/02 01:12:04;;;;;;;6.43;3.22;;;11.80;99.90;;;;;;5017583;28;20045;-80
2022/01/02 01:14:50;;;;;;;7.90;3.55;;;11.70;99.90;;;;;;5021864;28;20057;-80
2022/01/02 01:17:38;;;;;;;5.88;2.15;;;11.70;99.90;;;;;;5005357;28;20044;-80
2022/01/02 01:20:26;;;;;;;8.35;3.40;;;11.70;99.90;;;;;;5017399;28;20045;-79
2022/01/02 01:23:16;;;;;;;6.38;2.85;;;11.70;99.90;;;;;;5019067;28;20377;-78
2022/01/02 01:26:06;;;;;;;5.28;2.90;;;11.70;99.90;;;;;;5011250;28;20040;-78
2022/01/02 01:28:51;;;;;;;7.50;2.78;;;11.60;99.90;;;;;;5021522;28;20053;-78
2022/01/02 01:31:36;;;;;;;7.05;2.92;;;11.60;99.90;;;;;;5017227;28;20064;-79
2022/01/02 01:34:21;;;;;;;7.95;3.15;;;11.50;99.90;;;;;;4992181;28;20480;-78
2022/01/02 01:37:06;;;;;;;5.03;2.50;;;11.50;99.90;;;;;;4993887;28;20804;-78
2022/01/02 01:39:54;;;;;;;8.18;3.38;;;11.40;99.90;;;;;;5021605;28;20044;-77
2022/01/02 01:42:44;;;;;;;18.25;8.27;;;11.40;99.90;;;;;;5007179;28;20044;-77
2022/01/02 01:45:30;;;;;;;9.65;4.63;;;11.30;99.90;;;;;;5019434;28;20500;-78
2022/01/02 01:48:16;;;;;;;6.32;2.95;;;11.30;99.90;;;;;;5045863;28;20389;-80
2022/01/02 01:51:01;;;;;;;7.55;3.15;;;11.30;99.90;;;;;;5020483;28;20037;-80
2022/01/02 01:53:46;;;;;;;10.02;3.33;;;11.30;99.90;;;;;;4992758;28;20045;-76
2022/01/02 01:56:32;;;;;;;5.93;2.95;;;11.30;99.90;;;;;;5019567;28;20040;-77
2022/01/02 01:59:19;;;;;;;7.90;3.13;;;11.30;99.90;;;;;;4993593;28;20049;-78
2022/01/02 02:02:05;;;;;;;11.27;3.22;;;11.20;99.90;;;;;;5008274;28;20037;-78
2022/01/02 02:04:51;;;;;;;6.00;2.72;;;11.30;99.90;;;;;;5015148;28;20052;-75
2022/01/02 02:07:43;;;;;;;5.47;2.13;;;11.30;99.90;;;;;;5006129;28;20064;-75
2022/01/02 02:10:38;;;;;;;8.52;2.95;;;11.20;99.90;;;;;;5015241;28;20514;-76
2022/01/02 02:13:25;;;;;;;7.93;3.28;;;11.30;99.90;;;;;;5005809;28;20404;-79
2022/01/02 02:16:13;;;;;;;8.20;2.90;;;11.30;99.90;;;;;;5031893;28;20060;-78
2022/01/02 02:18:59;;;;;;;8.95;2.70;;;11.30;99.90;;;;;;5018949;28;20049;-79
2022/01/02 02:21:44;;;;;;;5.88;2.53;;;11.30;99.90;;;;;;5003264;28;20073;-78
2022/01/02 02:24:30;;;;;;;5.03;2.35;;;11.30;99.90;;;;;;4995837;28;20512;-78
2022/01/02 02:27:15;;;;;;;6.57;3.15;;;11.30;99.90;;;;;;5030909;28;20061;-79
2022/01/02 02:30:00;;;;;;;10.10;3.63;;;11.30;99.90;;;;;;5018820;28;20037;-78
2022/01/02 02:32:45;;;;;;;12.68;5.57;;;11.30;99.90;;;;;;5005391;28;20049;-82
2022/01/02 02:35:34;;;;;;;9.82;3.28;;;11.30;99.90;;;;;;5016902;28;20049;-76
2022/01/02 02:38:20;;;;;;;7.88;2.42;;;11.30;99.90;;;;;;5016411;28;20044;-76
2022/01/02 02:41:09;;;;;;;11.18;2.78;;;11.30;99.90;;;;;;5015312;28;20041;-76
2022/01/02 02:44:38;;;;;;;9.98;2.65;;;11.40;99.90;;;;;;5007184;28;20048;-78
2022/01/02 02:50:06;;;;;;;11.73;3.15;;;11.40;99.90;;;;;;5008512;28;20072;-79
2022/01/02 02:52:51;;;;;;;9.27;2.85;;;11.40;99.90;;;;;;5030406;28;20417;-76
2022/01/02 02:55:43;;;;;;;9.77;2.88;;;11.40;99.90;;;;;;5016285;28;20037;-76
2022/01/02 03:01:22;;;;;;;9.60;2.90;;;11.50;99.90;;;;;;5018030;28;20036;-76
2022/01/02 03:04:07;;;;;;;9.57;2.42;;;11.50;99.90;;;;;;5016650;28;20079;-76
2022/01/02 03:06:52;;;;;;;10.02;2.45;;;11.60;99.90;;;;;;4987597;28;20036;-75
2022/01/02 03:09:40;;;;;;;8.30;2.45;;;11.60;99.90;;;;;;5016637;28;20539;-77
2022/01/02 03:12:26;;;;;;;10.20;2.35;;;11.60;99.90;;;;;;5018652;28;20049;-77
2022/01/02 03:15:13;;;;;;;10.40;3.65;;;11.70;99.90;;;;;;5007122;28;20732;-78
2022/01/02 03:17:58;;;;;;;7.50;2.22;;;11.70;99.90;;;;;;5034312;28;20052;-78
2022/01/02 03:20:44;;;;;;;9.90;2.63;;;11.70;99.90;;;;;;5010460;28;20060;-79
2022/01/02 03:23:29;;;;;;;13.15;2.38;;;11.70;99.90;;;;;;5008068;28;20127;-78
2022/01/02 03:26:14;;;;;;;7.53;1.80;;;11.80;99.90;;;;;;5013101;28;20060;-78
2022/01/02 03:28:59;;;;;;;7.30;2.33;;;11.80;99.90;;;;;;5023898;28;20535;-76
2022/01/02 03:31:46;;;;;;;9.73;2.38;;;11.80;99.90;;;;;;5003342;28;20056;-75
2022/01/02 03:34:31;;;;;;;8.98;2.10;;;11.80;99.90;;;;;;5019356;28;20029;-76
2022/01/02 03:37:16;;;;;;;11.25;3.00;;;11.80;99.90;;;;;;5031288;28;20060;-76
2022/01/02 03:40:06;;;;;;;8.65;2.20;;;11.80;99.90;;;;;;5007094;28;20032;-79
2022/01/02 03:42:51;;;;;;;6.20;2.08;;;11.80;99.90;;;;;;5007112;28;20701;-78
2022/01/02 03:45:36;;;;;;;13.88;2.92;;;11.90;99.90;;;;;;5008378;28;20508;-79
2022/01/02 03:48:23;;;;;;;10.57;2.30;;;11.90;99.90;;;;;;5008963;28;20520;-78
2022/01/02 03:51:08;;;;;;;6.22;2.55;;;11.90;99.90;;;;;;5008674;28;20051;-78
2022/01/02 03:53:54;;;;;;;9.10;2.00;;;11.90;99.90;;;;;;5019355;28;20164;-77
2022/01/02 03:56:39;;;;;;;10.18;2.28;;;11.90;99.90;;;;;;5008174;28;20056;-78
2022/01/02 03:59:24;;;;;;;8.57;2.47;;;12.00;99.90;;;;;;5033930;28;20048;-78
2022/01/02 04:02:09;;;;;;;8.05;1.75;;;12.00;99.90;;;;;;5016967;28;20037;-78
2022/01/02 04:04:54;;;;;;;6.07;2.03;;;12.00;99.90;;;;;;5032819;28;20032;-79
2022/01/02 04:07:40;;;;;;;9.60;1.98;;;12.00;99.90;;;;;;5018785;28;20064;-78
2022/01/02 04:10:25;;;;;;;11.63;2.28;;;12.00;99.90;;;;;;5030419;28;20048;-77
2022/01/02 04:13:10;;;;;;;4.53;1.55;;;12.00;99.90;;;;;;5020638;28;20052;-79
2022/01/02 04:15:55;;;;;;;9.90;1.92;;;12.00;99.90;;;;;;5021227;28;20080;-77
2022/01/02 04:18:40;;;;;;;6.53;1.85;;;12.00;99.90;;;;;;5017490;28;20052;-77
2022/01/02 04:21:25;;;;;;;7.07;2.00;;;12.00;99.90;;;;;;4991522;28;20044;-77
2022/01/02 04:24:10;;;;;;;10.88;1.73;;;12.00;99.90;;;;;;5007413;28;20353;-75
2022/01/02 04:26:56;;;;;;;9.82;1.83;;;12.00;99.90;;;;;;5009527;28;20057;-75
2022/01/02 04:29:41;;;;;;;9.13;1.65;;;12.00;99.90;;;;;;4993487;28;20044;-74
2022/01/02 04:32:26;;;;;;;5.78;1.35;;;12.00;99.90;;;;;;4989313;28;20167;-78
2022/01/02 04:35:11;;;;;;;7.75;1.70;;;12.00;99.90;;;;;;5017667;28;20040;-75
2022/01/02 04:37:57;;;;;;;6.93;1.98;;;12.00;99.90;;;;;;5019463;28;20057;-76
2022/01/02 04:40:42;;;;;;;10.48;2.15;;;12.00;99.90;;;;;;5004357;28;20056;-76
2022/01/02 04:43:27;;;;;;;9.80;1.80;;;12.10;99.90;;;;;;5028894;28;20040;-76
2022/01/02 04:46:14;;;;;;;6.57;1.45;;;12.10;99.90;;;;;;5017933;28;20417;-76
2022/01/02 04:48:59;;;;;;;12.48;2.00;;;12.10;99.90;;;;;;5019993;28;20052;-76
2022/01/02 04:51:44;;;;;;;12.70;2.25;;;12.10;99.90;;;;;;5019293;28;20049;-76
2022/01/02 04:54:30;;;;;;;8.13;1.70;;;12.00;99.90;;;;;;5002277;28;20053;-77
2022/01/02 04:57:15;;;;;;;8.82;2.05;;;12.00;99.90;;;;;;5017493;28;20049;-77
2022/01/02 05:00:00;;;;;;;8.48;2.15;;;12.00;99.90;;;;;;5020279;28;20445;-77
2022/01/02 05:02:45;;;;;;;9.48;2.42;;;12.00;99.90;;;;;;5007959;28;20029;-77
2022/01/02 05:05:31;;;;;;;8.95;2.30;;;12.00;99.90;;;;;;5026960;28;20052;-77
2022/01/02 05:08:17;;;;;;;7.97;2.40;;;11.90;99.90;;;;;;5016774;28;20408;-77
2022/01/02 05:11:03;;;;;;;9.35;1.67;;;11.90;99.90;;;;;;5016615;28;20373;-78
2022/01/02 05:13:49;;;;;;;9.85;3.15;;;11.80;99.90;;;;;;5004167;28;20052;-77
2022/01/02 05:16:34;;;;;;;10.43;3.00;;;11.90;99.90;;;;;;5020890;28;20049;-77
2022/01/02 05:19:19;;;;;;;7.10;2.35;;;11.80;99.90;;;;;;4994630;28;20408;-77
2022/01/02 05:22:04;;;;;;;12.10;3.35;;;11.80;99.90;;;;;;5015695;28;20044;-77
2022/01/02 05:24:50;;;;;;;5.50;2.15;;;11.70;99.90;;;;;;5026781;28;20056;-77
2022/01/02 05:27:35;;;;;;;8.40;2.50;;;11.70;99.90;;;;;;5018988;28;20033;-76
2022/01/02 05:30:20;;;;;;;10.82;2.03;;;11.70;99.90;;;;;;5019201;28;20049;-76
2022/01/02 05:33:06;;;;;;;7.75;2.03;;;11.70;99.90;;;;;;5009143;28;20040;-76
2022/01/02 05:35:53;;;;;;;6.38;2.00;;;11.70;99.90;;;;;;5028216;28;21539;-76
2022/01/02 05:38:38;;;;;;;7.28;2.42;;;11.70;99.90;;;;;;5032539;28;20044;-76
2022/01/02 05:41:26;;;;;;;7.97;2.08;;;11.70;99.90;;;;;;5004237;28;20082;-76
2022/01/02 05:44:16;;;;;;;9.77;2.65;;;11.70;99.90;;;;;;5015787;28;20053;-76
2022/01/02 05:47:01;;;;;;;6.65;2.55;;;11.60;99.90;;;;;;5001519;28;20037;-76
2022/01/02 05:49:46;;;;;;;8.20;2.47;;;11.60;99.90;;;;;;5005737;28;20088;-76
2022/01/02 05:52:32;;;;;;;5.35;1.67;;;11.60;99.90;;;;;;5026932;28;20048;-76
2022/01/02 05:55:17;;;;;;;8.65;2.50;;;11.60;99.90;;;;;;5014686;28;20060;-76
2022/01/02 05:58:03;;;;;;;7.28;2.08;;;11.60;99.90;;;;;;5016635;28;20375;-76
2022/01/02 06:00:49;;;;;;;7.28;2.03;;;11.60;99.90;;;;;;4992424;28;20058;-76
2022/01/02 06:03:34;;;;;;;4.35;1.58;;;11.60;99.90;;;;;;5026671;28;20036;-78
2022/01/02 06:06:19;;;;;;;8.77;2.25;;;11.60;99.90;;;;;;5021219;28;20069;-77
2022/01/02 06:09:04;;;;;;;9.82;2.30;;;11.60;99.90;;;;;;5029730;28;20491;-78
2022/01/02 06:11:49;;;;;;;8.43;2.10;;;11.50;99.90;;;;;;5015348;28;20578;-78
2022/01/02 06:14:37;;;;;;;6.63;2.42;;;11.50;99.90;;;;;;5014757;28;20056;-77
2022/01/02 06:17:22;;;;;;;7.55;2.25;;;11.50;99.90;;;;;;5014407;28;20056;-77
2022/01/02 06:20:08;;;;;;;14.20;2.65;;;11.50;99.90;;;;;;5007175;28;20464;-77
2022/01/02 06:22:54;;;;;;;6.47;2.47;;;11.50;99.90;;;;;;5004357;28;20028;-77
2022/01/02 06:25:39;;;;;;;3.63;1.77;;;11.50;99.90;;;;;;5024423;28;20072;-75
2022/01/02 06:28:24;;;;;;;7.38;2.20;;;11.50;99.90;;;;;;5016796;28;20040;-79
2022/01/02 06:31:12;;;;;;;9.45;2.95;;;11.50;99.90;;;;;;5007990;28;20044;-78
2022/01/02 06:33:57;;;;;;;8.68;2.55;;;11.40;99.90;;;;;;5027025;28;20049;-78
2022/01/02 06:36:43;;;;;;;6.47;2.45;;;11.40;99.90;;;;;;5016770;28;20060;-76
2022/01/02 06:39:30;;;;;;;5.20;1.98;;;11.40;99.90;;;;;;5017289;28;20041;-76
2022/01/02 06:42:16;;;;;;;13.68;7.75;;;11.40;99.90;;;;;;5004345;28;20136;-76
2022/01/02 06:45:02;;;;;;;13.68;6.55;;;11.40;99.90;;;;;;4989367;28;20385;-78
2022/01/02 06:47:47;;;;;;;11.88;5.13;;;11.40;99.90;;;;;;4994102;28;20049;-78
2022/01/02 06:50:33;;;;;;;7.63;3.17;;;11.40;99.90;;;;;;4993943;28;20056;-78
2022/01/02 06:53:19;;;;;;;5.65;2.70;;;11.40;99.90;;;;;;5006912;28;20040;-78
2022/01/02 06:56:04;;;;;;;6.15;2.22;;;11.40;99.90;;;;;;5020784;28;20064;-79
2022/01/02 06:58:49;;;;;;;3.63;1.90;;;11.40;99.90;;;;;;4995188;28;20598;-78
2022/01/02 07:01:35;;;;;;;8.43;2.65;;;11.40;99.90;;;;;;5018945;28;20053;-78
2022/01/02 07:04:20;;;;;;;6.60;2.30;;;11.30;99.90;;;;;;5007324;28;20053;-78
2022/01/02 07:07:06;;;;;;;5.65;2.33;;;11.30;99.90;;;;;;5020806;28;20068;-78
2022/01/02 07:09:51;;;;;;;6.85;2.47;;;11.30;99.90;;;;;;5010884;28;20048;-79
2022/01/02 07:12:36;;;;;;;5.22;1.70;;;11.30;99.90;;;;;;5008249;28;20167;-79
2022/01/02 07:15:21;;;;;;;4.57;1.55;;;11.30;99.90;;;;;;5010428;28;20116;-78
2022/01/02 07:18:06;;;;;;;6.13;2.35;;;11.30;99.90;;;;;;5009901;28;20037;-79
2022/01/02 07:20:53;;;;;;;3.90;1.40;;;11.40;99.90;;;;;;5010041;28;20135;-78
2022/01/02 07:23:38;;;;;;;6.15;2.08;;;11.30;99.90;;;;;;5018534;28;20121;-78
2022/01/02 07:26:23;;;;;;;8.07;2.08;;;11.40;99.90;;;;;;5008752;28;20048;-78
2022/01/02 07:29:11;;;;;;;7.18;1.90;;;11.30;99.90;;;;;;5030840;28;20388;-78
2022/01/02 07:31:56;;;;;;;7.63;1.80;;;11.30;99.90;;;;;;5019429;28;20496;-78
2022/01/02 07:34:44;;;;;;;2.90;1.30;;;11.30;99.90;;;;;;5021714;28;21490;-78
2022/01/02 07:37:29;;;;;;;6.60;1.55;;;11.40;99.90;;;;;;5023718;28;20040;-78
2022/01/02 07:40:14;;;;;;;7.43;1.88;;;11.30;99.90;;;;;;5019453;28;20046;-78
2022/01/02 07:42:59;;;;;;;4.30;1.42;;;11.40;99.90;;;;;;4994241;28;20467;-78
2022/01/02 07:45:49;;;;;;;5.45;1.75;;;11.30;99.90;;;;;;4994345;28;20075;-77
2022/01/02 07:48:34;;;;;;;9.02;2.40;;;11.30;99.90;;;;;;5009817;28;20060;-77
2022/01/02 07:51:19;;;;;;;5.70;2.42;;;11.40;99.90;;;;;;5019375;28;20040;-77
2022/01/02 07:54:05;;;;;;;4.65;2.35;;;11.30;99.90;;;;;;5022609;28;20049;-77
2022/01/02 07:56:50;;;;;;;6.40;2.25;;;11.30;99.90;;;;;;5028886;28;20048;-76
2022/01/02 07:59:34;;;;;;;7.95;2.35;;;11.30;99.90;;;;;;4996399;28;20040;-77
2022/01/02 08:02:19;;;;;;;7.53;1.80;;;11.30;99.90;;;;;;4991196;28;20036;-78
2022/01/02 08:05:07;;;;;;;7.90;2.10;;;11.30;99.90;;;;;;5009461;28;20025;-77
2022/01/02 08:07:52;;;;;;;8.73;2.60;;;11.30;99.90;;;;;;5006656;28;20056;-74
2022/01/02 08:10:39;;;;;;;8.32;3.20;;;11.20;99.90;;;;;;4989442;28;20404;-75
2022/01/02 08:13:24;;;;;;;5.25;2.42;;;11.30;99.90;;;;;;5016548;28;20025;-74
2022/01/02 08:16:09;;;;;;;6.88;2.33;;;11.30;99.90;;;;;;5006401;28;20040;-74
2022/01/02 08:18:54;;;;;;;8.85;2.70;;;11.20;99.90;;;;;;5018397;28;20100;-74
2022/01/02 08:21:39;;;;;;;5.63;2.13;;;11.20;99.90;;;;;;5019032;28;20123;-75
2022/01/02 08:24:24;;;;;;;6.45;2.97;;;11.20;99.90;;;;;;5019791;28;20032;-75
2022/01/02 08:27:09;;;;;;;5.93;2.25;;;11.20;99.90;;;;;;5017509;28;20104;-75
2022/01/02 08:29:54;;;;;;;11.02;2.63;;;11.20;99.90;;;;;;5006206;28;20031;-75
2022/01/02 08:32:39;;;;;;;5.63;2.28;;;11.20;99.90;;;;;;5016832;28;20048;-75
2022/01/02 08:35:25;;;;;;;4.60;1.95;;;11.20;99.90;;;;;;5040886;28;20044;-75
2022/01/02 08:38:12;;;;;;;5.20;1.63;;;11.20;99.90;;;;;;5025429;28;20047;-76
2022/01/02 08:40:57;;;;;;;7.40;2.40;;;11.20;99.90;;;;;;5028256;28;20056;-76
2022/01/02 08:43:42;;;;;;;6.95;2.60;;;11.20;99.90;;;;;;5017939;28;20386;-76
2022/01/02 08:46:27;;;;;;;7.00;2.30;;;11.20;99.90;;;;;;5007263;28;20036;-76
2022/01/02 08:49:12;;;;;;;7.78;2.22;;;11.20;99.90;;;;;;4989088;28;20531;-75
2022/01/02 08:51:57;;;;;;;5.03;2.28;;;11.20;99.90;;;;;;5004841;28;20049;-76
2022/01/02 08:54:42;;;;;;;6.43;2.67;;;11.20;99.90;;;;;;5028336;28;20037;-76
2022/01/02 08:57:27;;;;;;;7.55;3.05;;;11.10;99.90;;;;;;5017277;28;20049;-75
2022/01/02 09:00:13;;;;;;;6.38;2.38;;;11.10;99.90;;;;;;5016354;28;20037;-76
2022/01/02 09:02:58;;;;;;;7.40;2.10;;;11.10;99.90;;;;;;5004726;28;20044;-75
2022/01/02 09:05:43;;;;;;;5.68;2.30;;;11.20;99.90;;;;;;5027886;28;20365;-76
2022/01/02 09:08:28;;;;;;;4.55;2.33;;;11.10;99.90;;;;;;5019678;28;20433;-76
2022/01/02 09:11:13;;;;;;;9.13;2.80;;;11.10;99.90;;;;;;5031983;28;20044;-76
2022/01/02 09:14:00;;;;;;;7.82;2.55;;;11.00;99.90;;;;;;5019257;28;20068;-76
2022/01/02 09:16:46;;;;;;;5.45;2.55;;;11.00;99.90;;;;;;5019090;28;20140;-76
2022/01/02 09:19:30;;;;;;;3.53;1.60;;;11.10;99.90;;;;;;5018135;28;20056;-76
2022/01/02 09:22:16;;;;;;;5.57;2.17;;;11.10;99.90;;;;;;5018837;28;20036;-80
2022/01/02 09:25:01;;;;;;;4.88;2.22;;;11.10;99.90;;;;;;5004412;28;20048;-77
2022/01/02 09:27:46;;;;;;;5.50;3.17;;;11.10;99.90;;;;;;5026302;28;20045;-77
2022/01/02 09:30:31;;;;;;;7.47;2.85;;;11.10;99.90;;;;;;5015989;28;20504;-78
2022/01/02 09:33:16;;;;;;;7.43;3.42;;;11.10;99.90;;;;;;5015518;28;20045;-78
2022/01/02 09:36:01;;;;;;;5.63;2.80;;;11.20;99.90;;;;;;5017536;28;20041;-77
2022/01/02 09:38:47;;;;;;;7.07;2.45;;;11.20;99.90;;;;;;5019196;28;20048;-78
2022/01/02 09:41:32;;;;;;;6.78;2.40;;;11.30;99.90;;;;;;5017974;28;20040;-77
2022/01/02 09:44:17;;;;;;;4.03;2.50;;;11.30;99.90;;;;;;4991288;28;20041;-78
2022/01/02 09:47:03;;;;;;;7.70;2.92;;;11.40;99.90;;;;;;4992181;28;20049;-78
2022/01/02 09:49:49;;;;;;;5.18;2.05;;;11.40;99.90;;;;;;5020037;28;20032;-77
2022/01/02 09:52:34;;;;;;;5.75;2.28;;;11.30;99.90;;;;;;5019078;28;20040;-78
2022/01/02 09:55:00;;;;;;;5.88;2.20;;;11.40;99.90;;;;;;5005069;28;20506;-78
2022/01/02 09:57:27;;;;;;;7.10;2.60;;;11.40;99.90;;;;;;5003957;28;20048;-79
2022/01/02 09:59:55;;;;;;;6.03;2.53;;;11.40;99.90;;;;;;5020018;28;20034;-77
2022/01/02 10:02:23;;;;;;;8.77;2.88;;;11.40;99.90;;;;;;4970124;28;20048;-76
2022/01/02 10:05:01;;;;;;;5.68;3.13;;;11.40;99.90;;;;;;4986171;28;20029;-77
2022/01/02 10:07:30;;;;;;;6.38;3.95;;;11.50;99.90;;;;;;5017681;28;20068;-77
2022/01/02 10:09:57;;;;;;;7.78;3.45;;;11.50;99.90;;;;;;5026791;28;20807;-77
2022/01/02 10:12:31;;;;;;;6.53;2.72;;;11.50;99.90;;;;;;4986006;28;20503;-76
2022/01/02 10:15:20;;;;;;;4.28;2.45;;;11.50;99.90;;;;;;5014115;28;20033;-76
2022/01/02 10:18:02;;;;;;;5.90;2.45;;;11.60;99.90;;;;;;5002721;28;20064;-76
2022/01/02 10:20:38;;;;;;;4.22;2.28;;;12.00;99.90;;;;;;5002628;28;20041;-77
2022/01/02 10:23:23;;;;;;;4.15;2.30;;;12.40;99.90;;;;;;4985404;28;20037;-76
2022/01/02 10:25:58;;;;;;;5.45;2.35;;;12.70;99.90;;;;;;5015967;28;20021;-76
2022/01/02 10:28:36;;;;;;;5.97;3.00;;;13.00;99.90;;;;;;5001578;28;20067;-78
2022/01/02 10:31:07;;;;;;;5.55;3.00;;;13.00;99.90;;;;;;5018025;28;20018;-78
2022/01/02 10:33:53;;;;;;;5.53;2.85;;;12.90;99.90;;;;;;5000018;28;20041;-77
2022/01/02 10:36:29;;;;;;;5.40;3.10;;;12.90;99.90;;;;;;5016698;28;20036;-78
2022/01/02 10:39:07;;;;;;;6.13;3.15;;;12.80;99.90;;;;;;5001665;28;20049;-77
2022/01/02 10:41:38;;;;;;;6.60;3.20;;;12.70;99.90;;;;;;5015566;28;20018;-78
2022/01/02 10:44:26;;;;;;;6.00;3.05;;;12.70;99.90;;;;;;5016799;28;20021;-78
2022/01/02 10:47:09;;;;;;;6.53;3.50;;;12.70;99.90;;;;;;4985873;28;20037;-78
2022/01/02 10:49:53;;;;;;;7.40;3.42;;;12.70;99.90;;;;;;5017115;28;20037;-78
2022/01/02 10:52:45;;;;;;;5.80;3.13;;;12.70;99.90;;;;;;5019089;28;20465;-78
2022/01/02 10:55:18;;;;;;;6.47;3.25;;;12.70;99.90;;;;;;4986193;28;20037;-78
2022/01/02 10:57:47;;;;;;;7.43;2.85;;;12.60;99.90;;;;;;5001057;28;20421;-78
2022/01/02 11:00:15;;;;;;;7.18;3.78;;;12.70;99.90;;;;;;5030915;28;20029;-78
2022/01/02 11:02:41;;;;;;;8.68;3.80;;;12.60;99.90;;;;;;5003103;28;20033;-78
2022/01/02 11:05:10;;;;;;;8.27;3.78;;;12.60;99.90;;;;;;4998639;28;20638;-78
2022/01/02 11:07:46;;;;;;;8.05;3.35;;;12.60;99.90;;;;;;5018220;28;20065;-78
2022/01/02 11:10:15;;;;;;;8.45;3.28;;;12.50;99.90;;;;;;4972023;28;20071;-78
2022/01/02 11:12:43;;;;;;;7.03;3.25;;;12.50;99.90;;;;;;4986480;28;20045;-83
2022/01/02 11:15:16;;;;;;;9.75;3.55;;;12.50;99.90;;;;;;5000960;28;20048;-81
2022/01/02 11:17:43;;;;;;;11.10;3.85;;;12.50;99.90;;;;;;5021058;28;20492;-79
2022/01/02 11:20:18;;;;;;;7.50;3.15;;;12.40;99.90;;;;;;4986683;28;20512;-81
2022/01/02 11:22:47;;;;;;;9.82;3.55;;;12.40;99.90;;;;;;5016094;28;20025;-78
2022/01/02 11:25:19;;;;;;;8.18;2.88;;;12.40;99.90;;;;;;5006515;28;20033;-79
2022/01/02 11:27:52;;;;;;;13.05;4.15;;;12.40;99.90;;;;;;5020628;28;20017;-78
2022/01/02 11:30:34;;;;;;;7.53;3.25;;;12.40;99.90;;;;;;5028697;28;20025;-77
2022/01/02 11:33:09;;;;;;;8.15;3.70;;;12.40;99.90;;;;;;5017786;28;20028;-77
2022/01/02 11:35:38;;;;;;;8.85;3.13;;;12.40;99.90;;;;;;4983468;28;20021;-77
2022/01/02 11:38:06;;;;;;;11.18;3.70;;;12.40;99.90;;;;;;5012691;28;20033;-77
2022/01/02 11:40:43;;;;;;;7.85;3.38;;;12.40;99.90;;;;;;5015550;28;20026;-77
2022/01/02 11:43:09;;;;;;;8.85;3.20;;;12.40;99.90;;;;;;5018535;28;20631;-77
2022/01/02 11:45:41;;;;;;;7.32;2.33;;;12.40;99.90;;;;;;5019357;28;20034;-77
2022/01/02 11:48:28;;;;;;;10.88;3.75;;;12.50;99.90;;;;;;5020847;28;20041;-77
2022/01/02 11:50:55;;;;;;;9.18;4.00;;;12.50;99.90;;;;;;5006998;28;20029;-76
2022/01/02 11:53:23;;;;;;;8.30;2.85;;;12.50;99.90;;;;;;5022443;28;20768;-76
2022/01/02 11:55:52;;;;;;;9.38;2.40;;;12.50;99.90;;;;;;4968989;28;20025;-78
2022/01/02 11:58:37;;;;;;;9.43;3.05;;;12.50;99.90;;;;;;5000306;28;20037;-77
2022/01/02 12:01:04;;;;;;;12.25;2.75;;;12.50;99.90;;;;;;5020454;28;20021;-77
2022/01/02 12:03:40;;;;;;;10.32;1.95;;;12.50;99.90;;;;;;5001210;28;20017;-77
2022/01/02 12:06:19;;;;;;;9.63;3.00;;;12.50;99.90;;;;;;5021349;28;20810;-77
2022/01/02 12:08:46;;;;;;;8.18;2.03;;;12.60;99.90;;;;;;5005921;28;20049;-77
2022/01/02 12:11:31;;;;;;;10.85;2.00;;;12.60;99.90;;;;;;5020463;28;20033;-78
2022/01/02 12:14:06;;;;;;;7.97;2.63;;;12.60;99.90;;;;;;5001310;28;20044;-78
2022/01/02 12:16:38;;;;;;;9.20;2.78;;;12.60;99.90;;;;;;5020288;28;20475;-78
2022/01/02 12:19:05;;;;;;;;;;;12.70;99.90;;;;;;5003914;28;20056;-78
2022/01/02 12:21:33;;;;;;;10.75;2.10;;;12.60;99.90;;;;;;5048248;28;19920;-76
2022/01/02 12:24:02;;;;;;;16.77;3.33;;;12.70;99.90;;;;;;5002376;28;20044;-76
2022/01/02 12:26:34;;;;;;;11.45;3.05;;;12.70;99.90;;;;;;5048559;28;20021;-77
2022/01/02 12:29:06;;;;;;;16.67;6.35;;;12.70;99.90;;;;;;5019787;28;21373;-77
2022/01/02 12:31:38;;;;;;;12.70;4.43;;;12.70;99.90;;;;;;5003521;28;20037;-76
2022/01/02 12:34:20;;;;;;;10.07;3.08;;;12.70;99.90;;;;;;5028376;28;20037;-76
2022/01/02 12:36:48;;;;;;;10.57;2.50;;;12.70;99.90;;;;;;5019408;28;20357;-78
2022/01/02 12:39:16;;;;;;;11.77;3.92;;;12.70;99.90;;;;;;4989962;28;20033;-78
2022/01/02 12:41:44;;;;;;;8.65;2.33;;;12.80;99.90;;;;;;5020742;28;20032;-78
2022/01/02 12:44:15;;;;;;;10.20;2.40;;;12.80;99.90;;;;;;5022311;28;20032;-78
2022/01/02 12:46:49;;;;;;;8.70;2.72;;;12.80;99.90;;;;;;5019748;28;20037;-77
2022/01/02 12:49:28;;;;;;;13.60;2.50;;;12.80;99.90;;;;;;5018257;28;20026;-79
2022/01/02 12:51:56;;;;;;;10.55;2.83;;;12.80;99.90;;;;;;5032732;28;20041;-78
2022/01/02 12:54:29;;;;;;;14.30;2.85;;;12.90;99.90;;;;;;5018519;28;20041;-78
2022/01/02 12:56:58;;;;;;;9.15;2.33;;;12.90;99.90;;;;;;5016705;28;20026;-82
2022/01/02 12:59:39;;;;;;;11.80;2.70;;;12.90;99.90;;;;;;5004022;28;20405;-78
2022/01/02 13:02:08;;;;;;;12.60;2.45;;;12.90;99.90;;;;;;5005739;28;20045;-79
2022/01/02 13:04:40;;;;;;;8.35;2.33;;;12.90;99.90;;;;;;5045971;28;20018;-78
2022/01/02 13:07:37;;;;;;;8.68;2.95;;;12.90;99.90;;;;;;4988119;28;20587;-78
2022/01/02 13:10:09;;;;;;;8.52;2.03;;;12.90;99.90;;;;;;5031170;28;20037;-77
2022/01/02 13:12:37;;;;;;;11.75;3.00;;;13.00;99.90;;;;;;5016398;28;20022;-79
2022/01/02 13:15:12;;;;;;;10.65;2.40;;;13.00;99.90;;;;;;5001698;28;20044;-79
2022/01/02 13:17:57;;;;;;;10.65;2.53;;;13.00;99.90;;;;;;5005138;28;21330;-79
2022/01/02 13:20:30;;;;;;;12.10;3.03;;;13.00;99.90;;;;;;5031907;28;20041;-80
2022/01/02 13:22:57;;;;;;;11.77;3.35;;;13.00;99.90;;;;;;5003629;28;20594;-79
2022/01/02 13:25:30;;;;;;;10.68;2.08;;;13.00;99.90;;;;;;4986023;28;20040;-80
2022/01/02 13:28:05;;;;;;;12.15;2.40;;;13.00;99.90;;;;;;5017503;28;20048;-77
2022/01/02 13:30:37;;;;;;;9.05;2.65;;;13.00;99.90;;;;;;5032729;28;20034;-76
2022/01/02 13:33:29;;;;;;;14.15;3.10;;;13.00;99.90;;;;;;4983323;28;20034;-76
2022/01/02 13:36:07;;;;;;;10.82;2.75;;;13.00;99.90;;;;;;5004100;28;20056;-78
2022/01/02 13:38:55;;;;;;;12.18;2.30;;;13.00;99.90;;;;;;5003276;28;20512;-78
2022/01/02 13:41:27;;;;;;;11.32;2.30;;;13.00;99.90;;;;;;5001834;28;20029;-80
2022/01/02 13:43:55;;;;;;;10.90;2.10;;;13.00;99.90;;;;;;5031364;28;21436;-80
2022/01/02 13:46:22;;;;;;;12.60;1.75;;;13.00;99.90;;;;;;4989817;28;20040;-80
2022/01/02 13:48:48;;;;;;;13.50;1.90;;;13.00;99.90;;;;;;5003018;28;20480;-80
2022/01/02 13:51:20;;;;;;;12.00;1.88;;;12.90;99.90;;;;;;4989011;28;20045;-77
2022/01/02 13:53:49;;;;;;;9.88;1.50;;;12.90;99.90;;;;;;4982428;28;20032;-75
2022/01/02 13:56:18;;;;;;;10.02;1.98;;;12.80;99.90;;;;;;5001659;28;20029;-78
2022/01/02 13:58:47;;;;;;;9.63;2.15;;;12.80;99.90;;;;;;4985882;28;22779;-76
2022/01/02 14:01:25;;;;;;;14.30;2.33;;;12.70;99.90;;;;;;4999128;28;20033;-77
2022/01/02 14:04:03;;;;;;;14.35;2.35;;;12.70;99.90;;;;;;4984088;28;20025;-78
2022/01/02 14:06:32;;;;;;;12.98;1.75;;;12.60;99.90;;;;;;4988009;28;20409;-77
2022/01/02 14:09:10;;;;;;;13.73;2.00;;;12.60;99.90;;;;;;5003510;28;20033;-77